Time;durP1;ratioP1;P1;durP2;ratioP2;P2;SDS_P1;SDS_P2;PMS_P1;PMS_P2;Temp;Humidity;BMP_temperature;BMP_pressure;BME280_temperature;BME280_humidity;BME280_pressure;Samples;Min_cycle;Max_cycle;Signal;HPM_P1;HPM_P2
2023/11/28 00:01:29;;;;;;;7.70;4.80;;;;;;;1.02;100.00;98746.28;5177102;28;20021;-72
2023/11/28 00:03:59;;;;;;;6.93;4.60;;;;;;;1.02;100.00;98749.72;5160210;28;20026;-72
2023/11/28 00:06:30;;;;;;;7.80;4.53;;;;;;;0.95;100.00;98755.91;5173512;28;20434;-72
2023/11/28 00:09:01;;;;;;;7.97;4.57;;;;;;;1.00;100.00;98746.34;5181349;28;20030;-71
2023/11/28 00:11:31;;;;;;;8.43;4.80;;;;;;;1.03;100.00;98740.28;5175249;28;20068;-72
2023/11/28 00:14:02;;;;;;;8.02;4.85;;;;;;;1.02;100.00;98754.84;5177136;28;20025;-72
2023/11/28 00:16:32;;;;;;;8.23;5.03;;;;;;;1.06;100.00;98751.31;5181521;28;20022;-72
2023/11/28 00:19:02;;;;;;;9.68;5.30;;;;;;;1.00;100.00;98741.19;5176314;28;20026;-72
2023/11/28 00:21:33;;;;;;;9.52;4.95;;;;;;;0.99;100.00;98757.50;5176102;28;20113;-72
2023/11/28 00:24:03;;;;;;;9.23;5.35;;;;;;;1.04;100.00;98753.06;5180821;28;20037;-72
2023/11/28 00:26:35;;;;;;;9.63;5.05;;;;;;;0.92;100.00;98748.25;5177088;28;20030;-72
2023/11/28 00:29:05;;;;;;;9.88;5.07;;;;;;;0.88;100.00;98756.94;5159560;28;20096;-72
2023/11/28 00:31:35;;;;;;;9.60;5.20;;;;;;;0.87;100.00;98759.56;5169210;28;20137;-72
2023/11/28 00:34:06;;;;;;;9.52;5.28;;;;;;;0.85;100.00;98762.16;5162913;28;20041;-72
2023/11/28 00:36:36;;;;;;;10.25;5.55;;;;;;;0.94;100.00;98750.81;5175747;28;20100;-72
2023/11/28 00:39:06;;;;;;;10.98;5.20;;;;;;;0.97;100.00;98756.72;5187810;28;20438;-72
2023/11/28 00:41:37;;;;;;;9.65;5.07;;;;;;;0.94;100.00;98761.09;5179953;28;20079;-73
2023/11/28 00:44:07;;;;;;;12.40;5.13;;;;;;;1.08;100.00;98749.53;5156534;28;20567;-73
2023/11/28 00:46:41;;;;;;;9.60;5.65;;;;;;;1.00;100.00;98763.47;5160374;28;20060;-72
2023/11/28 00:49:14;;;;;;;9.30;5.28;;;;;;;0.91;100.00;98761.16;5159306;28;20038;-72
2023/11/28 00:51:45;;;;;;;10.90;5.80;;;;;;;0.95;100.00;98760.19;5179038;28;20029;-73
2023/11/28 00:54:16;;;;;;;10.85;6.20;;;;;;;0.88;100.00;98756.13;5177592;28;20032;-72
2023/11/28 00:56:46;;;;;;;9.55;5.63;;;;;;;0.91;100.00;98751.72;5173629;28;20041;-72
2023/11/28 00:59:17;;;;;;;10.88;5.68;;;;;;;1.07;100.00;98763.28;5172867;28;20022;-71
2023/11/28 01:01:47;;;;;;;9.93;5.60;;;;;;;1.08;100.00;98759.81;5175836;28;20029;-72
2023/11/28 01:04:18;;;;;;;9.68;5.30;;;;;;;0.86;100.00;98763.84;5170227;28;20385;-71
2023/11/28 01:06:48;;;;;;;11.02;6.10;;;;;;;0.96;100.00;98764.44;5159194;28;20238;-71
2023/11/28 01:09:19;;;;;;;12.18;6.13;;;;;;;1.06;100.00;98760.75;5166900;28;20069;-72
2023/11/28 01:11:49;;;;;;;8.77;5.18;;;;;;;1.02;100.00;98765.13;5169879;28;20048;-72
2023/11/28 01:14:19;;;;;;;10.45;5.45;;;;;;;1.02;100.00;98756.56;5154922;28;20082;-72
2023/11/28 01:16:49;;;;;;;10.95;5.68;;;;;;;0.92;100.00;98766.25;5176744;28;20033;-72
2023/11/28 01:19:21;;;;;;;12.85;6.30;;;;;;;0.82;100.00;98764.81;5174372;28;20022;-71
2023/11/28 01:21:52;;;;;;;10.70;5.47;;;;;;;0.85;100.00;98769.88;5182269;28;20090;-68
2023/11/28 01:24:22;;;;;;;11.40;5.65;;;;;;;0.94;100.00;98767.09;5169047;28;20072;-71
2023/11/28 01:26:52;;;;;;;9.85;5.68;;;;;;;0.85;100.00;98782.72;5178509;28;20391;-69
2023/11/28 01:29:23;;;;;;;10.73;5.75;;;;;;;0.82;100.00;98772.53;5174679;28;20022;-72
2023/11/28 01:31:53;;;;;;;9.57;5.22;;;;;;;0.96;100.00;98787.59;5178290;28;20372;-72
2023/11/28 01:34:24;;;;;;;11.13;5.60;;;;;;;0.90;100.00;98774.91;5180770;28;20109;-73
2023/11/28 01:36:55;;;;;;;10.90;6.00;;;;;;;0.88;100.00;98787.78;5179309;28;20439;-72
2023/11/28 01:39:25;;;;;;;9.40;5.22;;;;;;;0.95;100.00;98784.19;5172582;28;20034;-71
2023/11/28 01:41:55;;;;;;;7.90;4.88;;;;;;;0.84;100.00;98786.19;5179718;28;20026;-72
2023/11/28 01:44:26;;;;;;;11.32;5.95;;;;;;;0.83;100.00;98792.22;5176837;28;20468;-71
2023/11/28 01:46:58;;;;;;;12.27;5.47;;;;;;;0.79;100.00;98784.59;5179437;28;20105;-72
2023/11/28 01:49:34;;;;;;;10.70;5.57;;;;;;;0.82;100.00;98789.66;5180159;28;20427;-72
2023/11/28 01:52:05;;;;;;;10.13;5.50;;;;;;;0.91;100.00;98795.41;5182361;28;20080;-72
2023/11/28 01:54:36;;;;;;;10.20;5.40;;;;;;;0.89;100.00;98794.63;5179597;28;20943;-71
2023/11/28 01:57:06;;;;;;;9.13;5.43;;;;;;;0.82;100.00;98792.25;5180794;28;20086;-72
2023/11/28 01:59:40;;;;;;;9.40;5.50;;;;;;;0.78;100.00;98790.63;5177742;28;20123;-73
2023/11/28 02:02:11;;;;;;;11.55;5.90;;;;;;;0.79;100.00;98805.16;5177365;28;20431;-72
2023/11/28 02:04:42;;;;;;;9.68;5.55;;;;;;;0.92;100.00;98804.00;5177983;28;20029;-72
2023/11/28 02:07:14;;;;;;;11.02;5.63;;;;;;;1.01;100.00;98798.59;5178767;28;20432;-72
2023/11/28 02:09:44;;;;;;;10.65;6.40;;;;;;;0.90;100.00;98806.59;5173664;28;20040;-73
2023/11/28 02:12:15;;;;;;;10.52;5.80;;;;;;;0.81;100.00;98809.41;5160702;28;20029;-72
2023/11/28 02:14:45;;;;;;;10.70;5.75;;;;;;;0.95;100.00;98807.34;5174706;28;20455;-73
2023/11/28 02:17:16;;;;;;;11.77;6.10;;;;;;;0.87;100.00;98809.25;5160803;28;20041;-72
2023/11/28 02:19:50;;;;;;;9.18;5.05;;;;;;;0.98;100.00;98799.53;5179054;28;20041;-73
2023/11/28 02:22:20;;;;;;;10.97;5.57;;;;;;;0.98;100.00;98799.53;5179982;28;20064;-72
2023/11/28 02:24:54;;;;;;;9.00;5.20;;;;;;;0.94;100.00;98808.22;5159540;28;20026;-72
2023/11/28 02:27:25;;;;;;;9.80;5.32;;;;;;;1.06;100.00;98807.88;5176617;28;20395;-70
2023/11/28 02:29:56;;;;;;;10.68;6.00;;;;;;;0.97;100.00;98805.56;5179836;28;20025;-72
2023/11/28 02:32:26;;;;;;;9.60;5.25;;;;;;;0.95;100.00;98809.91;5176135;28;20518;-70
2023/11/28 02:34:56;;;;;;;10.88;5.43;;;;;;;1.02;100.00;98808.84;5179371;28;20523;-72
2023/11/28 02:37:27;;;;;;;9.38;5.03;;;;;;;1.08;100.00;98807.84;5164173;28;20118;-72
2023/11/28 02:39:57;;;;;;;11.30;5.70;;;;;;;1.03;100.00;98805.38;5183247;28;20045;-72
2023/11/28 02:42:27;;;;;;;9.13;5.72;;;;;;;1.02;100.00;98806.28;5181430;28;20064;-70
2023/11/28 02:44:58;;;;;;;11.38;5.20;;;;;;;0.95;100.00;98815.03;5182457;28;20033;-72
2023/11/28 02:47:28;;;;;;;11.20;5.43;;;;;;;0.98;100.00;98808.97;5181719;28;20035;-73
2023/11/28 02:49:58;;;;;;;9.40;4.72;;;;;;;0.83;100.00;98809.34;5179698;28;20022;-72
2023/11/28 02:52:28;;;;;;;10.90;5.68;;;;;;;0.90;100.00;98822.00;5175865;28;20117;-72
2023/11/28 02:54:59;;;;;;;10.32;5.43;;;;;;;0.93;100.00;98819.34;5182207;28;20033;-72
2023/11/28 02:57:29;;;;;;;9.55;5.20;;;;;;;0.92;100.00;98809.94;5166287;28;20030;-72
2023/11/28 02:59:59;;;;;;;11.48;5.22;;;;;;;0.88;100.00;98821.22;5183649;28;20026;-71
2023/11/28 03:02:30;;;;;;;9.68;5.47;;;;;;;0.95;100.00;98804.75;5165741;28;20496;-71
2023/11/28 03:05:01;;;;;;;10.40;5.25;;;;;;;0.96;100.00;98810.72;5186276;28;20025;-73
2023/11/28 03:07:31;;;;;;;9.85;5.15;;;;;;;0.84;100.00;98806.75;5165989;28;20527;-72
2023/11/28 03:10:02;;;;;;;8.95;4.95;;;;;;;0.94;100.00;98808.22;5161072;28;20040;-72
2023/11/28 03:12:32;;;;;;;10.57;4.65;;;;;;;0.88;100.00;98813.50;5173663;28;20033;-73
2023/11/28 03:15:03;;;;;;;7.45;4.00;;;;;;;0.87;100.00;98824.66;5183212;28;20490;-73
2023/11/28 03:17:33;;;;;;;8.88;4.72;;;;;;;0.87;100.00;98818.69;5182011;28;20057;-73
2023/11/28 03:20:04;;;;;;;8.88;4.63;;;;;;;1.01;100.00;98825.16;5183015;28;20033;-72
2023/11/28 03:22:35;;;;;;;8.85;4.25;;;;;;;0.89;100.00;98829.78;5182378;28;20029;-72
2023/11/28 03:25:07;;;;;;;10.20;4.50;;;;;;;0.88;100.00;98834.06;5165071;28;20040;-73
2023/11/28 03:27:38;;;;;;;8.73;4.65;;;;;;;0.95;100.00;98838.19;5182810;28;20029;-72
2023/11/28 03:30:09;;;;;;;7.75;4.30;;;;;;;0.95;100.00;98833.03;5183132;28;20233;-73
2023/11/28 03:32:39;;;;;;;9.75;4.60;;;;;;;0.98;100.00;98829.53;5180889;28;20513;-73
2023/11/28 03:35:09;;;;;;;9.98;4.32;;;;;;;0.91;100.00;98835.72;5183191;28;20399;-72
2023/11/28 03:37:39;;;;;;;9.57;4.18;;;;;;;0.97;100.00;98838.97;5181593;28;20124;-73
2023/11/28 03:40:10;;;;;;;10.65;4.75;;;;;;;0.96;100.00;98849.28;5184875;28;20509;-73
2023/11/28 03:42:41;;;;;;;7.82;4.22;;;;;;;0.72;100.00;98843.03;5179645;28;20067;-72
2023/11/28 03:45:12;;;;;;;9.88;4.53;;;;;;;0.76;100.00;98843.81;5182490;28;20029;-72
2023/11/28 03:47:43;;;;;;;8.35;4.78;;;;;;;0.81;100.00;98847.09;5180594;28;20021;-73
2023/11/28 03:50:13;;;;;;;10.23;4.38;;;;;;;0.98;100.00;98858.66;5182764;28;20544;-72
2023/11/28 03:52:43;;;;;;;7.70;4.20;;;;;;;1.01;100.00;98855.16;5163934;28;20135;-69
2023/11/28 03:55:14;;;;;;;10.70;4.93;;;;;;;0.91;100.00;98851.97;5175423;28;20032;-71
2023/11/28 03:57:44;;;;;;;8.73;4.40;;;;;;;0.91;100.00;98851.97;5180748;28;20109;-72
2023/11/28 04:00:15;;;;;;;8.95;3.85;;;;;;;1.01;100.00;98857.72;5181928;28;20035;-72
2023/11/28 04:02:45;;;;;;;9.30;4.40;;;;;;;1.09;100.00;98854.06;5186587;28;20036;-73
2023/11/28 04:05:15;;;;;;;9.00;4.25;;;;;;;1.00;100.00;98867.19;5183801;28;20032;-72
2023/11/28 04:07:46;;;;;;;7.80;4.20;;;;;;;0.93;100.00;98868.19;5183969;28;20038;-73
2023/11/28 04:10:16;;;;;;;9.48;4.53;;;;;;;0.93;100.00;98868.19;5184767;28;20108;-72
2023/11/28 04:12:47;;;;;;;8.85;4.30;;;;;;;0.83;100.00;98874.47;5181350;28;20551;-72
2023/11/28 04:15:17;;;;;;;11.27;4.22;;;;;;;0.93;100.00;98868.19;5177368;28;20026;-72
2023/11/28 04:17:47;;;;;;;8.52;4.18;;;;;;;0.86;100.00;98887.25;5183179;28;20121;-73
2023/11/28 04:20:18;;;;;;;9.07;4.80;;;;;;;0.77;100.00;98877.19;5185869;28;20085;-73
2023/11/28 04:22:48;;;;;;;9.52;4.20;;;;;;;0.83;100.00;98886.47;5183259;28;20042;-72
2023/11/28 04:25:18;;;;;;;9.30;4.80;;;;;;;0.90;100.00;98890.59;5185258;28;20021;-72
2023/11/28 04:27:49;;;;;;;10.18;4.97;;;;;;;0.84;100.00;98895.84;5180314;28;20033;-72
2023/11/28 04:30:20;;;;;;;11.18;4.90;;;;;;;0.72;100.00;98880.75;5185351;28;20033;-72
2023/11/28 04:32:50;;;;;;;8.23;4.30;;;;;;;0.87;100.00;98894.06;5168450;28;20048;-72
2023/11/28 04:35:20;;;;;;;10.10;4.80;;;;;;;0.73;100.00;98890.97;5183425;28;20153;-73
2023/11/28 04:37:51;;;;;;;12.60;5.13;;;;;;;0.73;100.00;98896.13;5180334;28;20048;-72
2023/11/28 04:40:21;;;;;;;8.88;4.85;;;;;;;0.81;100.00;98896.78;5182083;28;20033;-72
2023/11/28 04:42:52;;;;;;;8.55;4.18;;;;;;;0.78;100.00;98906.28;5178838;28;20116;-72
2023/11/28 04:45:22;;;;;;;10.88;4.85;;;;;;;0.76;100.00;98913.19;5183759;28;20026;-71
2023/11/28 04:47:52;;;;;;;8.30;4.47;;;;;;;0.63;100.00;98906.66;5181300;28;20105;-73
2023/11/28 04:50:22;;;;;;;11.95;4.65;;;;;;;0.80;100.00;98905.38;5186220;28;20200;-73
2023/11/28 04:52:53;;;;;;;9.48;4.60;;;;;;;0.72;100.00;98902.13;5183337;28;20407;-73
2023/11/28 04:55:23;;;;;;;9.13;4.72;;;;;;;0.72;100.00;98912.41;5181188;28;20033;-72
2023/11/28 04:57:53;;;;;;;10.30;4.80;;;;;;;0.63;100.00;98910.06;5165992;28;20479;-72
2023/11/28 05:00:24;;;;;;;8.45;4.53;;;;;;;0.62;100.00;98910.97;5177644;28;20034;-68
2023/11/28 05:02:54;;;;;;;9.68;5.03;;;;;;;0.57;100.00;98919.66;5183405;28;20029;-70
2023/11/28 05:05:24;;;;;;;8.27;4.35;;;;;;;0.54;100.00;98940.28;5179109;28;20288;-69
2023/11/28 05:07:55;;;;;;;10.55;4.47;;;;;;;0.64;100.00;98937.47;5181917;28;20113;-69
2023/11/28 05:10:25;;;;;;;9.63;4.63;;;;;;;0.67;100.00;98934.81;5182344;28;20177;-70
2023/11/28 05:12:55;;;;;;;10.23;4.47;;;;;;;0.54;100.00;98946.25;5183670;28;20025;-71
2023/11/28 05:15:26;;;;;;;10.02;4.95;;;;;;;0.54;100.00;98928.25;5183737;28;20026;-72
2023/11/28 05:17:56;;;;;;;10.52;4.43;;;;;;;0.60;100.00;98942.69;5176826;28;20026;-71
2023/11/28 05:20:26;;;;;;;9.50;4.57;;;;;;;0.57;100.00;98943.59;5177838;28;20033;-70
2023/11/28 05:22:56;;;;;;;8.95;4.20;;;;;;;0.57;100.00;98951.31;5160893;28;20021;-73
2023/11/28 05:25:27;;;;;;;10.07;4.55;;;;;;;0.49;100.00;98954.91;5179468;28;20434;-72
2023/11/28 05:27:58;;;;;;;10.85;4.22;;;;;;;0.44;100.00;98962.75;5183964;28;20029;-69
2023/11/28 05:30:28;;;;;;;9.50;4.20;;;;;;;0.48;100.00;98964.38;5183063;28;20025;-72
2023/11/28 05:32:58;;;;;;;9.27;4.65;;;;;;;0.42;100.00;98961.91;5183031;28;20022;-71
2023/11/28 05:35:28;;;;;;;9.00;4.25;;;;;;;0.43;100.00;98957.63;5169583;28;20049;-69
2023/11/28 05:37:59;;;;;;;9.73;4.35;;;;;;;0.43;100.00;98968.78;5173128;28;20045;-72
2023/11/28 05:40:29;;;;;;;11.57;4.47;;;;;;;0.28;100.00;98984.50;5171028;28;20054;-72
2023/11/28 05:42:59;;;;;;;8.70;4.20;;;;;;;0.36;100.00;98976.63;5155581;28;20450;-71
2023/11/28 05:45:30;;;;;;;9.05;4.43;;;;;;;0.44;100.00;98982.44;5172253;28;20534;-70
2023/11/28 05:48:02;;;;;;;7.78;4.07;;;;;;;0.48;100.00;98987.50;5158615;28;20025;-70
2023/11/28 05:50:32;;;;;;;8.88;3.75;;;;;;;0.36;100.00;98987.72;5170654;28;20271;-72
2023/11/28 05:53:03;;;;;;;8.13;4.20;;;;;;;0.38;100.00;98996.25;5176122;28;20029;-70
2023/11/28 05:55:33;;;;;;;8.10;4.05;;;;;;;0.45;100.00;98987.56;5173206;28;20041;-69
2023/11/28 05:58:04;;;;;;;7.00;3.70;;;;;;;0.36;100.00;99003.16;5178382;28;20048;-69
2023/11/28 06:00:35;;;;;;;13.55;4.18;;;;;;;0.26;100.00;99001.66;5175451;28;20038;-73
2023/11/28 06:03:05;;;;;;;9.18;3.55;;;;;;;0.29;100.00;98996.47;5142948;28;20369;-69
2023/11/28 06:05:37;;;;;;;8.30;3.67;;;;;;;0.27;100.00;98998.22;5172678;28;20041;-69
2023/11/28 06:08:07;;;;;;;7.13;3.70;;;;;;;0.33;100.00;99000.66;5157484;28;20033;-69
2023/11/28 06:10:37;;;;;;;6.38;3.38;;;;;;;0.18;100.00;99018.91;5156625;28;20026;-68
2023/11/28 06:13:08;;;;;;;6.75;3.17;;;;;;;0.15;100.00;99013.00;5171161;28;20029;-70
2023/11/28 06:15:38;;;;;;;7.97;3.10;;;;;;;0.21;100.00;99021.44;5171542;28;20041;-68
2023/11/28 06:18:10;;;;;;;8.18;3.30;;;;;;;0.27;100.00;99018.75;5178954;28;20133;-71
2023/11/28 06:20:40;;;;;;;5.90;2.80;;;;;;;0.08;100.00;99027.66;5171471;28;20124;-72
2023/11/28 06:23:11;;;;;;;5.95;3.20;;;;;;;0.16;100.00;99028.38;5181165;28;20642;-73
2023/11/28 06:25:41;;;;;;;5.35;2.95;;;;;;;0.17;100.00;99035.22;5158008;28;20249;-72
2023/11/28 06:28:11;;;;;;;5.38;3.03;;;;;;;0.08;100.00;99031.97;5174840;28;20399;-73
2023/11/28 06:30:42;;;;;;;6.40;2.83;;;;;;;0.08;100.00;99049.94;5170373;28;20033;-73
2023/11/28 06:33:12;;;;;;;6.63;3.15;;;;;;;0.03;100.00;99052.59;5171773;28;20048;-73
2023/11/28 06:35:43;;;;;;;6.75;3.40;;;;;;;0.11;100.00;99057.59;5173598;28;21015;-68
2023/11/28 06:38:13;;;;;;;5.53;2.80;;;;;;;0.05;100.00;99066.25;5173540;28;20491;-70
2023/11/28 06:40:43;;;;;;;8.85;3.40;;;;;;;-0.07;100.00;99077.63;5173026;28;20029;-73
2023/11/28 06:43:14;;;;;;;5.40;2.95;;;;;;;-0.03;100.00;99080.94;5173030;28;20108;-72
2023/11/28 06:45:44;;;;;;;7.35;3.28;;;;;;;0.10;100.00;99082.44;5172071;28;20104;-71
2023/11/28 06:48:14;;;;;;;6.18;2.75;;;;;;;-0.03;100.00;99086.94;5179734;28;20669;-73
2023/11/28 06:50:44;;;;;;;6.95;2.72;;;;;;;-0.04;100.00;99098.09;5183469;28;20029;-73
2023/11/28 06:53:15;;;;;;;4.50;2.85;;;;;;;-0.01;100.00;99101.44;5182904;28;20034;-73
2023/11/28 06:55:45;;;;;;;6.72;2.90;;;;;;;-0.09;100.00;99107.56;5183228;28;20124;-73
2023/11/28 06:58:15;;;;;;;4.68;2.40;;;;;;;0.02;100.00;99119.38;5167360;28;20026;-73
2023/11/28 07:00:46;;;;;;;6.05;2.80;;;;;;;-0.05;100.00;99116.94;5183653;28;20038;-71
2023/11/28 07:03:16;;;;;;;7.80;2.75;;;;;;;0.00;100.00;99118.56;5184732;28;20105;-72
2023/11/28 07:05:46;;;;;;;5.45;2.63;;;;;;;-0.04;100.00;99140.00;5185372;28;20740;-72
2023/11/28 07:08:16;;;;;;;5.82;2.90;;;;;;;-0.13;100.00;99131.59;5164660;28;20026;-72
2023/11/28 07:10:47;;;;;;;7.10;3.03;;;;;;;0.02;100.00;99148.44;5180249;28;20104;-69
2023/11/28 07:13:17;;;;;;;5.72;3.00;;;;;;;-0.09;100.00;99144.38;5181441;28;20018;-72
2023/11/28 07:15:48;;;;;;;6.22;2.88;;;;;;;0.01;100.00;99151.91;5165819;28;20661;-72
2023/11/28 07:18:20;;;;;;;4.15;2.38;;;;;;;-0.02;100.00;99157.09;5183986;28;20707;-73
2023/11/28 07:20:50;;;;;;;5.78;2.55;;;;;;;0.02;100.00;99161.28;5182475;28;20030;-73
2023/11/28 07:23:21;;;;;;;5.15;2.42;;;;;;;0.10;100.00;99156.88;5184211;28;20022;-73
2023/11/28 07:25:51;;;;;;;5.72;2.85;;;;;;;0.09;100.00;99177.44;5182532;28;20434;-73
2023/11/28 07:28:21;;;;;;;4.93;2.38;;;;;;;0.03;100.00;99173.25;5186618;28;20033;-73
2023/11/28 07:30:52;;;;;;;5.35;2.63;;;;;;;0.12;100.00;99185.94;5180273;28;20065;-73
2023/11/28 07:33:23;;;;;;;8.82;2.85;;;;;;;0.12;100.00;99183.38;5165404;28;20036;-73
2023/11/28 07:35:53;;;;;;;7.50;2.30;;;;;;;0.11;100.00;99181.69;5182159;28;20064;-73
2023/11/28 07:38:24;;;;;;;5.13;2.72;;;;;;;0.16;100.00;99197.84;5183287;28;20472;-68
2023/11/28 07:40:55;;;;;;;4.88;2.65;;;;;;;0.22;100.00;99197.75;5182713;28;20022;-73
2023/11/28 07:43:25;;;;;;;5.30;2.25;;;;;;;0.19;100.00;99196.97;5184281;28;20426;-70
2023/11/28 07:45:56;;;;;;;6.82;2.63;;;;;;;0.00;100.00;99195.56;5164657;28;20425;-72
2023/11/28 07:48:26;;;;;;;4.40;2.20;;;;;;;0.06;100.00;99200.59;5177471;28;20068;-71
2023/11/28 07:50:57;;;;;;;7.65;2.42;;;;;;;0.08;100.00;99199.69;5182632;28;20038;-70
2023/11/28 07:53:27;;;;;;;5.65;2.10;;;;;;;0.14;100.00;99206.44;5182473;28;20124;-72
2023/11/28 07:55:57;;;;;;;4.13;1.92;;;;;;;0.19;100.00;99210.66;5180454;28;20026;-70
2023/11/28 07:58:29;;;;;;;5.53;2.30;;;;;;;0.14;100.00;99216.72;5180818;28;20018;-73
2023/11/28 08:01:00;;;;;;;3.40;1.85;;;;;;;0.18;100.00;99219.22;5180237;28;20049;-73
2023/11/28 08:03:30;;;;;;;5.05;2.30;;;;;;;0.19;100.00;99220.91;5217729;22;20049;-73
2023/11/28 08:06:03;;;;;;;6.43;2.50;;;;;;;0.25;100.00;99231.09;5201606;28;20070;-73
2023/11/28 08:08:35;;;;;;;5.47;2.28;;;;;;;0.26;100.00;99230.25;5203800;28;20431;-73
2023/11/28 08:11:08;;;;;;;4.82;2.03;;;;;;;0.18;100.00;99238.94;5201522;28;20048;-73
2023/11/28 08:13:39;;;;;;;4.95;2.08;;;;;;;0.14;100.00;99237.25;5185407;28;20053;-73
2023/11/28 08:16:10;;;;;;;4.75;1.70;;;;;;;0.13;100.00;99244.13;5199225;28;20447;-73
2023/11/28 08:18:40;;;;;;;7.40;1.88;;;;;;;0.07;100.00;99259.63;5202555;28;20529;-73
2023/11/28 08:21:11;;;;;;;7.93;2.08;;;;;;;0.08;100.00;99258.75;5185026;28;20047;-73
2023/11/28 08:23:42;;;;;;;4.78;2.15;;;;;;;0.16;100.00;99256.94;5201792;28;20049;-73
2023/11/28 08:26:14;;;;;;;5.75;1.75;;;;;;;0.16;100.00;99269.75;5202301;28;20438;-73
2023/11/28 08:28:44;;;;;;;4.85;2.25;;;;;;;0.15;100.00;99274.91;5202869;28;20453;-73
2023/11/28 08:31:14;;;;;;;5.05;1.75;;;;;;;0.11;100.00;99271.56;5200278;28;20128;-73
2023/11/28 08:33:45;;;;;;;4.05;1.92;;;;;;;0.20;100.00;99281.69;5201187;28;20588;-72
2023/11/28 08:36:16;;;;;;;4.28;1.80;;;;;;;0.17;100.00;99294.56;5202306;28;20028;-73
2023/11/28 08:38:46;;;;;;;4.72;2.15;;;;;;;0.16;100.00;99292.88;5204715;28;20075;-72
2023/11/28 08:41:18;;;;;;;5.28;1.90;;;;;;;0.19;100.00;99303.09;5201623;28;20032;-72
2023/11/28 08:43:48;;;;;;;6.57;2.30;;;;;;;0.20;100.00;99298.81;5183643;28;20026;-73
2023/11/28 08:46:18;;;;;;;5.07;2.03;;;;;;;0.10;100.00;99299.81;5202271;28;20030;-72
2023/11/28 08:48:50;;;;;;;4.68;1.90;;;;;;;0.23;100.00;99304.75;5202059;28;20021;-72
2023/11/28 08:51:20;;;;;;;6.38;2.10;;;;;;;0.23;100.00;99309.03;5201825;28;20030;-72
2023/11/28 08:53:50;;;;;;;5.32;2.15;;;;;;;0.27;100.00;99314.13;5201982;28;20334;-72
2023/11/28 08:56:21;;;;;;;6.97;2.45;;;;;;;0.18;100.00;99323.69;5201895;28;20029;-72
2023/11/28 08:58:53;;;;;;;7.85;2.50;;;;;;;0.09;100.00;99327.22;5202750;28;20430;-72
2023/11/28 09:01:24;;;;;;;4.50;1.75;;;;;;;0.05;100.00;99328.13;5183940;28;20084;-72
2023/11/28 09:03:54;;;;;;;6.38;2.13;;;;;;;-0.03;100.00;99325.69;5202629;28;20029;-72
2023/11/28 09:06:24;;;;;;;6.40;1.73;;;;;;;0.10;100.00;99328.94;5200927;28;20045;-72
2023/11/28 09:08:55;;;;;;;8.15;1.92;;;;;;;0.01;100.00;99328.22;5201786;28;20037;-72
2023/11/28 09:11:25;;;;;;;5.68;2.05;;;;;;;0.10;100.00;99333.19;5201679;28;20140;-72
2023/11/28 09:13:55;;;;;;;5.10;2.10;;;;;;;0.13;100.00;99334.00;5202624;28;20037;-72
2023/11/28 09:16:26;;;;;;;8.07;2.20;;;;;;;0.14;100.00;99345.13;5202388;28;20032;-72
2023/11/28 09:18:56;;;;;;;7.00;2.22;;;;;;;0.14;100.00;99345.97;5202619;28;20064;-72
2023/11/28 09:21:26;;;;;;;4.97;1.88;;;;;;;0.10;100.00;99357.16;5202320;28;20041;-72
2023/11/28 09:23:56;;;;;;;5.65;2.05;;;;;;;0.07;100.00;99359.75;5200254;28;20523;-72
2023/11/28 09:26:27;;;;;;;6.55;2.40;;;;;;;0.07;100.00;99364.88;5184793;28;20258;-72
2023/11/28 09:28:59;;;;;;;8.10;2.17;;;;;;;0.12;100.00;99362.28;5202967;28;20036;-72
2023/11/28 09:31:29;;;;;;;5.07;2.05;;;;;;;0.11;100.00;99371.72;5200166;28;20040;-72
2023/11/28 09:33:59;;;;;;;5.57;2.17;;;;;;;0.26;100.00;99376.63;5202631;28;20221;-72
2023/11/28 09:36:30;;;;;;;6.63;2.50;;;;;;;0.22;100.00;99379.25;5201505;28;20599;-72
2023/11/28 09:39:04;;;;;;;6.40;2.50;;;;;;;0.25;100.00;99379.22;5203164;28;20029;-72
2023/11/28 09:41:35;;;;;;;6.25;2.13;;;;;;;0.25;100.00;99392.06;5205300;28;20036;-72
2023/11/28 09:44:06;;;;;;;8.45;2.47;;;;;;;0.27;100.00;99391.19;5207833;28;20044;-72
2023/11/28 09:46:37;;;;;;;7.97;2.78;;;;;;;0.21;100.00;99401.50;5209589;28;20029;-72
2023/11/28 09:49:10;;;;;;;9.35;2.50;;;;;;;0.11;100.00;99394.81;5207746;28;20509;-72
2023/11/28 09:51:41;;;;;;;6.75;2.20;;;;;;;0.06;100.00;99396.56;5208025;28;20026;-73
2023/11/28 09:54:13;;;;;;;6.75;2.42;;;;;;;0.03;100.00;99396.63;5210153;28;20086;-72
2023/11/28 09:56:47;;;;;;;6.60;2.42;;;;;;;0.18;100.00;99398.16;5205850;28;20434;-72
2023/11/28 09:59:18;;;;;;;6.53;2.38;;;;;;;0.05;100.00;99400.00;5204323;28;20406;-72
2023/11/28 10:01:51;;;;;;;5.30;2.22;;;;;;;0.02;100.00;99410.31;5206894;28;20072;-72
2023/11/28 10:04:21;;;;;;;7.07;2.60;;;;;;;0.00;100.00;99408.66;5206982;28;20033;-72
2023/11/28 10:06:52;;;;;;;6.53;2.58;;;;;;;0.27;100.00;99404.03;5206582;28;20033;-72
2023/11/28 10:09:23;;;;;;;4.97;2.03;;;;;;;0.52;100.00;99402.78;5207251;28;20685;-72
2023/11/28 10:11:55;;;;;;;5.72;2.10;;;;;;;0.45;99.63;99393.50;5208768;28;20053;-72
2023/11/28 10:14:25;;;;;;;5.55;2.10;;;;;;;0.55;99.80;99395.03;5206168;28;20083;-72
2023/11/28 10:16:57;;;;;;;4.90;2.00;;;;;;;0.56;99.10;99396.72;5207085;28;20037;-72
2023/11/28 10:19:28;;;;;;;5.47;2.10;;;;;;;0.62;100.00;99391.53;5205862;28;20026;-72
2023/11/28 10:22:02;;;;;;;6.75;2.58;;;;;;;0.84;100.00;99400.59;5209584;28;20449;-72
2023/11/28 10:24:33;;;;;;;6.15;2.58;;;;;;;0.84;98.78;99397.16;5204214;28;20049;-72
2023/11/28 10:27:04;;;;;;;5.18;2.10;;;;;;;0.71;98.07;99395.66;5207406;28;20029;-72
2023/11/28 10:29:34;;;;;;;3.90;1.80;;;;;;;0.86;98.93;99400.56;5206312;28;20120;-73
2023/11/28 10:32:07;;;;;;;6.55;2.53;;;;;;;0.90;99.63;99390.19;5208921;28;20924;-72
2023/11/28 10:34:37;;;;;;;9.30;2.60;;;;;;;0.66;100.00;99382.88;5206625;28;20032;-73
2023/11/28 10:37:08;;;;;;;5.20;2.10;;;;;;;0.93;100.00;99385.00;5207544;28;20411;-73
2023/11/28 10:39:39;;;;;;;6.53;2.47;;;;;;;0.94;99.49;99394.44;5206475;28;20041;-72
2023/11/28 10:42:09;;;;;;;6.22;1.95;;;;;;;0.91;99.47;99393.63;5208800;28;20029;-72
2023/11/28 10:44:39;;;;;;;6.13;2.30;;;;;;;0.98;100.00;99390.06;5206808;28;20079;-72
2023/11/28 10:47:12;;;;;;;5.28;2.00;;;;;;;0.98;100.00;99401.22;5207012;28;20035;-72
2023/11/28 10:49:42;;;;;;;4.25;1.85;;;;;;;1.09;99.94;99396.72;5205525;28;20067;-72
2023/11/28 10:52:18;;;;;;;4.60;1.90;;;;;;;1.01;99.93;99398.59;5206936;28;20029;-72
2023/11/28 10:54:54;;;;;;;4.38;1.90;;;;;;;1.08;100.00;99394.19;5204636;28;20356;-73
2023/11/28 10:57:28;;;;;;;5.53;1.98;;;;;;;1.20;99.94;99407.69;5205885;28;20025;-72
2023/11/28 11:00:08;;;;;;;5.55;1.77;;;;;;;1.16;99.85;99400.06;5205221;28;20036;-73
2023/11/28 11:02:39;;;;;;;4.60;1.88;;;;;;;1.33;99.61;99403.19;5205176;28;20096;-72
2023/11/28 11:05:10;;;;;;;5.45;2.47;;;;;;;1.31;99.20;99408.38;5205386;28;20064;-73
2023/11/28 11:07:41;;;;;;;4.28;1.88;;;;;;;1.53;99.02;99412.25;5205765;28;20025;-72
2023/11/28 11:10:12;;;;;;;4.15;2.10;;;;;;;1.67;98.46;99405.13;5205687;28;20063;-72
2023/11/28 11:12:44;;;;;;;4.75;1.80;;;;;;;1.61;98.03;99407.78;5205016;28;20057;-72
2023/11/28 11:15:39;;;;;;;4.28;1.90;;;;;;;1.52;98.72;99407.13;5205671;28;20021;-72
2023/11/28 11:18:41;;;;;;;3.30;1.85;;;;;;;1.48;99.34;99408.06;5206146;28;20032;-72
2023/11/28 11:21:30;;;;;;;4.85;1.90;;;;;;;1.37;99.46;99410.81;5205156;28;20044;-72
2023/11/28 11:24:02;;;;;;;4.57;1.40;;;;;;;1.42;99.99;99411.59;5206486;28;20053;-72
2023/11/28 11:26:39;;;;;;;4.18;1.60;;;;;;;1.42;99.81;99411.59;5205370;28;20033;-72
2023/11/28 11:29:37;;;;;;;5.53;2.05;;;;;;;1.21;99.46;99414.53;5207432;28;20387;-72
2023/11/28 11:32:12;;;;;;;6.05;1.80;;;;;;;1.12;100.00;99427.56;5206929;28;20024;-72
2023/11/28 11:34:47;;;;;;;4.38;1.60;;;;;;;1.10;100.00;99421.56;5204640;28;20031;-71
2023/11/28 11:37:21;;;;;;;4.43;1.73;;;;;;;1.14;100.00;99418.09;5202911;28;20032;-72
2023/11/28 11:39:52;;;;;;;4.05;1.83;;;;;;;1.16;100.00;99436.94;5205638;28;20033;-72
2023/11/28 11:42:29;;;;;;;5.55;2.10;;;;;;;1.17;100.00;99435.19;5205635;28;20033;-72
2023/11/28 11:45:02;;;;;;;5.32;1.83;;;;;;;1.23;100.00;99437.69;5204320;28;20388;-72
2023/11/28 11:47:35;;;;;;;4.50;2.33;;;;;;;1.16;100.00;99439.50;5202363;28;20025;-72
2023/11/28 11:50:07;;;;;;;4.95;2.50;;;;;;;1.08;100.00;99438.75;5206708;28;20561;-72